createdAt,value
2023-06-25T00:00:21.190Z,83.96
2023-06-25T00:05:44.367Z,83.77
2023-06-25T00:10:47.597Z,83.04
2023-06-25T00:15:50.794Z,83.79
2023-06-25T00:20:55.050Z,83.29
2023-06-25T00:25:58.234Z,82.66
2023-06-25T00:31:01.394Z,83.37
2023-06-25T00:36:09.486Z,82.19
2023-06-25T00:41:13.413Z,83.97
2023-06-25T00:46:17.289Z,83.93
2023-06-25T00:51:23.361Z,84.11
2023-06-25T00:56:32.364Z,84.50
2023-06-25T01:01:50.004Z,84.75
2023-06-25T01:06:57.472Z,84.73
2023-06-25T01:12:02.183Z,85.07
2023-06-25T01:17:06.806Z,85.33
2023-06-25T01:22:11.730Z,85.45
2023-06-25T01:27:14.793Z,85.54
2023-06-25T01:32:19.276Z,85.51
2023-06-25T01:37:22.417Z,85.53
2023-06-25T01:42:25.528Z,85.96
2023-06-25T01:47:28.605Z,86.08
2023-06-25T01:52:31.640Z,86.26
2023-06-25T01:57:34.749Z,86.52
2023-06-25T02:02:37.817Z,86.45
2023-06-25T02:07:40.984Z,86.66
2023-06-25T02:12:44.193Z,86.52
2023-06-25T02:17:47.328Z,85.64
2023-06-25T02:22:51.622Z,82.22
2023-06-25T02:27:54.834Z,80.84
2023-06-25T02:32:58.069Z,80.54
2023-06-25T02:38:01.379Z,82.26
2023-06-25T02:43:04.571Z,83.50
2023-06-25T02:48:07.783Z,83.81
2023-06-25T02:53:11.710Z,84.70
2023-06-25T02:58:14.823Z,83.81
2023-06-25T03:03:17.962Z,81.58
2023-06-25T03:08:21.316Z,80.91
2023-06-25T03:13:24.353Z,82.52
2023-06-25T03:18:27.668Z,82.51
2023-06-25T03:23:30.675Z,83.13
2023-06-25T03:28:33.680Z,81.89
2023-06-25T03:33:36.794Z,82.42
2023-06-25T03:38:39.908Z,81.12
2023-06-25T03:43:43.019Z,80.76
2023-06-25T03:48:46.117Z,78.76
2023-06-25T03:53:49.330Z,78.08
2023-06-25T03:58:52.551Z,76.21
2023-06-25T04:03:55.726Z,73.33
2023-06-25T04:08:58.871Z,70.48
2023-06-25T04:14:01.975Z,67.18
2023-06-25T04:19:05.617Z,65.08
2023-06-25T04:24:08.805Z,59.33
2023-06-25T04:29:12.165Z,59.42
2023-06-25T04:34:15.436Z,56.92
2023-06-25T04:39:18.546Z,47.26
2023-06-25T04:44:21.759Z,46.86
2023-06-25T04:49:25.175Z,46.28
2023-06-25T04:54:28.309Z,43.90
2023-06-25T04:59:31.392Z,42.09
2023-06-25T05:04:34.396Z,40.69
2023-06-25T05:09:37.399Z,40.33
2023-06-25T05:14:40.515Z,39.32
2023-06-25T05:19:43.722Z,38.19
2023-06-25T05:24:46.906Z,37.74
2023-06-25T05:29:50.061Z,36.53
2023-06-25T05:34:53.170Z,36.20
2023-06-25T05:39:56.265Z,35.42
2023-06-25T05:44:59.374Z,34.46
2023-06-25T05:50:02.690Z,33.70
2023-06-25T05:55:06.333Z,32.56
2023-06-25T06:00:10.354Z,32.48
2023-06-25T06:05:13.663Z,31.56
2023-06-25T06:10:17.685Z,32.29
2023-06-25T06:15:21.299Z,32.11
2023-06-25T06:20:24.409Z,32.17
2023-06-25T06:25:27.538Z,31.92
2023-06-25T06:30:30.793Z,31.69
2023-06-25T06:35:34.068Z,31.64
2023-06-25T06:40:37.267Z,30.92
2023-06-25T06:45:40.493Z,30.41
2023-06-25T06:50:43.887Z,31.01
2023-06-25T06:55:47.000Z,32.00
2023-06-25T07:00:50.207Z,31.82
2023-06-25T07:05:53.386Z,30.75
2023-06-25T07:10:56.635Z,30.10
2023-06-25T07:15:59.843Z,29.14
2023-06-25T07:21:03.671Z,28.87
2023-06-25T07:26:07.206Z,27.64
2023-06-25T07:31:10.422Z,27.48
2023-06-25T07:36:13.610Z,27.19
2023-06-25T07:41:16.818Z,28.23
2023-06-25T07:46:19.986Z,28.34
2023-06-25T07:51:23.241Z,27.62
2023-06-25T07:56:26.353Z,28.55
2023-06-25T08:01:30.581Z,28.31
2023-06-25T08:06:34.000Z,28.58
2023-06-25T08:11:37.545Z,29.24
2023-06-25T08:16:40.739Z,29.38
2023-06-25T08:21:43.945Z,28.99
2023-06-25T08:26:47.254Z,28.56
2023-06-25T08:31:51.868Z,29.18
2023-06-25T08:36:57.186Z,29.71
2023-06-25T08:42:01.011Z,29.45
2023-06-25T08:47:08.268Z,29.17
2023-06-25T08:52:12.649Z,29.59
2023-06-25T08:57:15.963Z,29.64
2023-06-25T09:02:19.670Z,30.84
2023-06-25T09:07:22.898Z,33.63
2023-06-25T09:12:26.706Z,35.49
2023-06-25T09:17:29.826Z,36.71
2023-06-25T09:22:33.748Z,38.27
2023-06-25T09:27:36.747Z,39.37
2023-06-25T09:32:51.021Z,40.66
2023-06-25T09:37:54.709Z,40.00
2023-06-25T09:42:59.484Z,39.13
2023-06-25T09:48:02.990Z,38.86
2023-06-25T09:53:17.690Z,38.50
2023-06-25T09:58:21.688Z,36.71
2023-06-25T10:03:25.009Z,36.56
2023-06-25T10:08:28.244Z,38.08
2023-06-25T10:13:31.561Z,37.36
2023-06-25T10:18:43.112Z,37.01
2023-06-25T10:23:56.524Z,35.43
2023-06-25T10:29:07.572Z,36.33
2023-06-25T10:34:12.061Z,35.66
2023-06-25T10:39:15.267Z,35.13
2023-06-25T10:44:18.484Z,35.52
2023-06-25T10:49:21.800Z,37.07
2023-06-25T10:54:25.112Z,38.10
2023-06-25T10:59:28.114Z,38.67
2023-06-25T11:04:31.223Z,39.28
2023-06-25T11:09:34.333Z,39.68
2023-06-25T11:14:37.544Z,39.56
2023-06-25T11:19:40.648Z,39.17
2023-06-25T11:24:43.764Z,38.64
2023-06-25T11:29:48.200Z,37.85
2023-06-25T11:34:51.306Z,37.18
2023-06-25T11:39:54.420Z,37.06
2023-06-25T11:45:05.713Z,36.61
2023-06-25T11:50:16.711Z,35.85
2023-06-25T11:55:22.337Z,36.47
2023-06-25T12:00:25.387Z,36.68
2023-06-25T12:05:28.677Z,35.80
2023-06-25T12:10:31.714Z,34.84
2023-06-25T12:15:35.152Z,35.36
2023-06-25T12:20:38.756Z,36.34
2023-06-25T12:25:41.748Z,35.72
2023-06-25T12:30:44.757Z,35.79
2023-06-25T12:35:47.867Z,35.79
2023-06-25T12:40:58.298Z,35.39
2023-06-25T12:46:01.351Z,35.22
2023-06-25T12:51:04.669Z,35.29
2023-06-25T12:56:07.787Z,35.71
2023-06-25T13:01:15.364Z,35.97
2023-06-25T13:06:19.741Z,35.80
2023-06-25T13:11:22.758Z,35.57
2023-06-25T13:16:25.745Z,35.54
2023-06-25T13:21:28.753Z,35.89
2023-06-25T13:26:31.761Z,35.74
2023-06-25T13:31:35.264Z,35.55
2023-06-25T13:36:38.626Z,35.23
2023-06-25T13:41:41.692Z,35.21
2023-06-25T13:46:45.063Z,35.85
2023-06-25T13:51:48.223Z,36.03
2023-06-25T13:56:55.245Z,35.38
2023-06-25T14:01:59.969Z,35.73
2023-06-25T14:07:03.002Z,35.26
2023-06-25T14:12:06.392Z,35.12
2023-06-25T14:17:09.505Z,35.35
2023-06-25T14:22:12.518Z,35.06
2023-06-25T14:27:15.720Z,34.87
2023-06-25T14:32:19.400Z,34.40
2023-06-25T14:37:22.560Z,34.52
2023-06-25T14:42:25.866Z,33.50
2023-06-25T14:47:28.835Z,34.52
2023-06-25T14:52:31.848Z,34.97
2023-06-25T14:57:34.894Z,35.22
2023-06-25T15:02:38.223Z,35.62
2023-06-25T15:07:41.525Z,35.94
2023-06-25T15:12:44.626Z,35.93
2023-06-25T15:17:48.499Z,35.74
2023-06-25T15:22:51.671Z,35.45
2023-06-25T15:27:54.876Z,35.43
2023-06-25T15:32:58.035Z,35.78
2023-06-25T15:38:01.412Z,36.71
2023-06-25T15:43:04.513Z,37.09
2023-06-25T15:48:08.316Z,37.76
2023-06-25T15:53:11.351Z,37.83
2023-06-25T15:58:17.429Z,37.81
2023-06-25T16:03:20.669Z,37.79
2023-06-25T16:08:23.954Z,38.45
2023-06-25T16:13:27.066Z,40.59
2023-06-25T16:18:31.699Z,46.30
2023-06-25T16:23:34.811Z,48.76
2023-06-25T16:28:39.867Z,50.12
2023-06-25T16:33:43.181Z,51.03
2023-06-25T16:38:46.410Z,51.84
2023-06-25T16:43:49.909Z,52.11
2023-06-25T16:48:52.921Z,51.51
2023-06-25T16:54:00.636Z,50.38
2023-06-25T16:59:04.063Z,50.22
2023-06-25T17:04:07.287Z,50.00
2023-06-25T17:09:10.379Z,50.20
2023-06-25T17:14:13.601Z,50.44
2023-06-25T17:19:17.245Z,50.87
2023-06-25T17:24:20.314Z,50.63
2023-06-25T17:29:23.636Z,51.00
2023-06-25T17:34:26.738Z,51.37
2023-06-25T17:39:30.052Z,51.82
2023-06-25T17:44:33.672Z,52.01
2023-06-25T17:49:36.799Z,52.30
2023-06-25T17:54:39.990Z,52.50
2023-06-25T17:59:43.206Z,52.67
2023-06-25T18:04:46.326Z,52.65
2023-06-25T18:09:49.430Z,52.78
2023-06-25T18:14:52.852Z,52.97
2023-06-25T18:19:55.959Z,53.33
2023-06-25T18:24:59.162Z,53.66
2023-06-25T18:30:02.396Z,53.97
2023-06-25T18:35:05.906Z,54.44
2023-06-25T18:40:09.731Z,54.76
2023-06-25T18:45:13.648Z,55.18
2023-06-25T18:50:19.242Z,55.75
2023-06-25T18:55:22.626Z,56.05
2023-06-25T19:00:25.856Z,56.42
2023-06-25T19:05:29.148Z,56.67
2023-06-25T19:10:32.312Z,57.05
2023-06-25T19:15:35.409Z,57.12
2023-06-25T19:20:41.141Z,58.04
2023-06-25T19:25:44.245Z,58.92
2023-06-25T19:30:47.500Z,58.85
2023-06-25T19:35:51.006Z,58.93
2023-06-25T19:40:54.124Z,59.40
2023-06-25T19:45:57.315Z,59.67
2023-06-25T19:51:00.521Z,59.80
2023-06-25T19:56:03.924Z,60.80
2023-06-25T20:01:07.442Z,62.50
2023-06-25T20:06:10.665Z,62.47
2023-06-25T20:11:13.969Z,63.59
2023-06-25T20:16:17.385Z,62.82
2023-06-25T20:21:20.514Z,63.68
2023-06-25T20:26:25.245Z,64.81
2023-06-25T20:31:28.568Z,66.04
2023-06-25T20:36:31.869Z,66.05
2023-06-25T20:41:35.188Z,65.62
2023-06-25T20:46:38.606Z,65.36
2023-06-25T20:51:41.818Z,65.24
2023-06-25T20:56:44.922Z,65.47
2023-06-25T21:01:48.237Z,66.14
2023-06-25T21:06:51.358Z,66.53
2023-06-25T21:11:54.462Z,67.80
2023-06-25T21:16:57.866Z,68.32
2023-06-25T21:22:00.989Z,68.02
2023-06-25T21:27:04.321Z,68.64
2023-06-25T21:32:08.131Z,68.97
2023-06-25T21:37:11.235Z,69.89
2023-06-25T21:42:14.363Z,68.51
2023-06-25T21:47:17.514Z,68.72
2023-06-25T21:52:20.763Z,69.67
2023-06-25T21:57:23.903Z,70.01
2023-06-25T22:02:27.191Z,70.42
2023-06-25T22:07:30.621Z,70.14
2023-06-25T22:12:34.010Z,71.15
2023-06-25T22:17:39.166Z,71.39
2023-06-25T22:22:42.386Z,71.86
2023-06-25T22:27:51.955Z,72.45
2023-06-25T22:32:55.814Z,73.51
2023-06-25T22:37:59.084Z,73.83
2023-06-25T22:43:02.678Z,73.79
2023-06-25T22:48:06.136Z,74.00
2023-06-25T22:53:10.898Z,73.99
2023-06-25T22:58:14.084Z,74.20
2023-06-25T23:03:17.354Z,74.51
2023-06-25T23:08:20.705Z,74.24
2023-06-25T23:13:23.817Z,73.43
2023-06-25T23:18:26.983Z,71.88
2023-06-25T23:23:32.692Z,72.74
2023-06-25T23:28:36.416Z,72.63
2023-06-25T23:33:39.421Z,74.36
2023-06-25T23:38:42.439Z,74.73
2023-06-25T23:43:45.544Z,75.64
2023-06-25T23:48:48.552Z,76.27
2023-06-25T23:53:51.552Z,76.49
2023-06-25T23:58:54.565Z,76.35
